createdAt,value
2023-04-17T00:01:32.494Z,16.60
2023-04-17T00:06:34.087Z,20.50
2023-04-17T00:09:02.260Z,18.60
2023-04-17T00:11:30.880Z,18.10
2023-04-17T00:16:27.537Z,20.00
2023-04-17T00:18:56.079Z,21.50
2023-04-17T00:21:24.501Z,17.10
2023-04-17T00:23:52.959Z,20.10
2023-04-17T00:26:21.111Z,15.00
2023-04-17T00:28:50.602Z,14.30
2023-04-17T00:31:19.179Z,17.30
2023-04-17T00:33:47.679Z,17.50
2023-04-17T00:36:16.048Z,18.50
2023-04-17T00:38:44.809Z,19.00
2023-04-17T00:41:13.116Z,16.00
2023-04-17T00:43:41.456Z,13.40
2023-04-17T00:46:10.960Z,13.20
2023-04-17T00:48:41.199Z,15.70
2023-04-17T00:51:13.443Z,14.00
2023-04-17T00:53:41.722Z,14.60
2023-04-17T00:56:09.935Z,14.10
2023-04-17T00:58:38.744Z,14.00
2023-04-17T01:01:07.095Z,14.90
2023-04-17T01:06:04.875Z,17.20
2023-04-17T01:08:41.645Z,19.00
2023-04-17T01:11:13.095Z,15.70
2023-04-17T01:13:47.709Z,15.60
2023-04-17T01:16:18.768Z,16.80
2023-04-17T01:18:48.485Z,13.90
2023-04-17T01:21:17.961Z,14.80
2023-04-17T01:23:48.758Z,17.70
2023-04-17T01:26:18.894Z,19.10
2023-04-17T01:28:51.970Z,17.40
2023-04-17T01:31:21.206Z,15.10
2023-04-17T01:33:49.849Z,14.80
2023-04-17T01:38:46.507Z,14.40
2023-04-17T01:43:46.302Z,17.80
2023-04-17T01:46:14.664Z,18.20
2023-04-17T01:48:42.929Z,15.90
2023-04-17T01:51:11.197Z,15.70
2023-04-17T01:53:39.485Z,16.40
2023-04-17T01:56:07.887Z,15.50
2023-04-17T01:58:36.411Z,16.50
2023-04-17T02:01:05.031Z,18.90
2023-04-17T02:03:34.053Z,14.90
2023-04-17T02:06:03.726Z,16.10
2023-04-17T02:08:35.761Z,14.80
2023-04-17T02:11:10.065Z,15.10
2023-04-17T02:13:38.524Z,14.30
2023-04-17T02:16:07.799Z,16.60
2023-04-17T02:18:36.743Z,15.00
2023-04-17T02:21:04.941Z,15.00
2023-04-17T02:23:36.984Z,13.00
2023-04-17T02:31:09.878Z,14.80
2023-04-17T02:33:38.687Z,13.20
2023-04-17T02:36:07.680Z,13.50
2023-04-17T02:38:39.748Z,15.30
2023-04-17T02:41:10.210Z,12.40
2023-04-17T02:43:38.910Z,15.80
2023-04-17T02:46:07.364Z,14.70
2023-04-17T02:48:35.600Z,12.80
2023-04-17T02:51:04.223Z,15.30
2023-04-17T02:53:32.627Z,15.70
2023-04-17T02:56:00.909Z,10.80
2023-04-17T02:58:29.837Z,14.40
2023-04-17T03:01:02.774Z,14.30
2023-04-17T03:03:35.451Z,11.80
2023-04-17T03:06:05.008Z,15.00
2023-04-17T03:11:05.194Z,12.90
2023-04-17T03:13:39.259Z,13.40
2023-04-17T03:16:07.614Z,15.50
2023-04-17T03:18:41.186Z,11.10
2023-04-17T03:21:10.286Z,11.80
2023-04-17T03:23:38.376Z,13.30
2023-04-17T03:26:07.565Z,15.10
2023-04-17T03:28:39.442Z,12.60
2023-04-17T03:31:07.845Z,15.30
2023-04-17T03:33:38.054Z,10.80
2023-04-17T03:36:06.540Z,13.90
2023-04-17T03:38:35.979Z,11.00
2023-04-17T03:41:04.844Z,15.00
2023-04-17T03:43:36.406Z,15.50
2023-04-17T03:46:04.847Z,11.80
2023-04-17T03:48:33.524Z,12.30
2023-04-17T03:51:03.405Z,12.00
2023-04-17T03:53:32.508Z,10.50
2023-04-17T03:56:02.382Z,17.20
2023-04-17T03:58:34.805Z,15.50
2023-04-17T04:01:03.812Z,10.50
2023-04-17T04:03:37.148Z,13.80
2023-04-17T04:06:07.434Z,11.50
2023-04-17T04:08:38.248Z,11.30
2023-04-17T04:11:06.963Z,10.50
2023-04-17T04:13:37.410Z,9.10
2023-04-17T04:16:11.755Z,11.20
2023-04-17T04:18:40.426Z,12.40
2023-04-17T04:21:12.518Z,11.80
2023-04-17T04:23:42.954Z,10.80
2023-04-17T04:26:17.010Z,10.30
2023-04-17T04:28:50.333Z,11.70
2023-04-17T04:31:22.985Z,11.40
2023-04-17T04:36:25.177Z,11.60
2023-04-17T04:39:05.814Z,14.20
2023-04-17T04:41:36.470Z,13.20
2023-04-17T04:44:06.357Z,8.80
2023-04-17T04:46:35.788Z,11.20
2023-04-17T04:49:04.191Z,10.90
2023-04-17T04:51:33.963Z,10.70
2023-04-17T04:54:02.702Z,14.30
2023-04-17T04:56:32.931Z,13.70
2023-04-17T04:59:02.149Z,15.40
2023-04-17T05:01:33.071Z,11.80
2023-04-17T05:04:02.288Z,9.90
2023-04-17T05:06:33.628Z,11.30
2023-04-17T05:09:04.579Z,14.20
2023-04-17T05:11:37.182Z,10.70
2023-04-17T05:14:05.439Z,10.20
2023-04-17T05:16:37.110Z,10.80
2023-04-17T05:19:05.548Z,11.50
2023-04-17T05:21:47.162Z,8.80
2023-04-17T05:24:16.804Z,10.30
2023-04-17T05:29:14.607Z,12.10
2023-04-17T05:36:50.840Z,13.10
2023-04-17T05:41:47.514Z,10.80
2023-04-17T05:44:15.656Z,16.20
2023-04-17T05:46:43.840Z,11.00
2023-04-17T05:49:13.071Z,10.90
2023-04-17T05:51:41.461Z,14.00
2023-04-17T05:54:10.089Z,11.00
2023-04-17T05:56:40.444Z,10.40
2023-04-17T05:59:08.644Z,10.10
2023-04-17T06:01:39.861Z,8.30
2023-04-17T06:04:08.438Z,10.30
2023-04-17T06:06:37.995Z,10.60
2023-04-17T06:09:07.849Z,8.80
2023-04-17T06:11:36.135Z,11.40
2023-04-17T06:14:04.831Z,10.70
2023-04-17T06:19:01.628Z,11.10
2023-04-17T06:21:30.127Z,9.70
2023-04-17T06:24:01.880Z,11.30
2023-04-17T06:26:30.340Z,8.90
2023-04-17T06:28:58.681Z,7.70
2023-04-17T06:31:27.884Z,9.00
2023-04-17T06:33:56.355Z,8.50
2023-04-17T06:36:27.363Z,9.10
2023-04-17T06:39:22.232Z,9.40
2023-04-17T06:41:50.980Z,8.00
2023-04-17T06:44:27.235Z,7.30
2023-04-17T06:46:56.134Z,7.60
2023-04-17T06:49:25.431Z,10.90
2023-04-17T06:54:21.844Z,7.00
2023-04-17T06:56:50.191Z,5.70
2023-04-17T06:59:18.696Z,5.80
2023-04-17T07:01:47.209Z,6.10
2023-04-17T07:04:20.949Z,12.60
2023-04-17T07:06:49.224Z,7.00
2023-04-17T07:09:17.543Z,7.90
2023-04-17T07:11:45.809Z,8.60
2023-04-17T07:14:14.002Z,7.90
2023-04-17T07:16:42.388Z,11.00
2023-04-17T07:19:10.963Z,6.20
2023-04-17T07:21:39.414Z,8.10
2023-04-17T07:24:08.001Z,5.80
2023-04-17T07:26:37.345Z,6.70
2023-04-17T07:29:05.567Z,6.80
2023-04-17T07:31:34.181Z,6.20
2023-04-17T07:34:02.354Z,7.90
2023-04-17T07:36:30.748Z,12.80
2023-04-17T07:38:59.044Z,8.40
2023-04-17T07:41:32.689Z,9.10
2023-04-17T07:44:03.692Z,7.60
2023-04-17T07:46:32.435Z,10.20
2023-04-17T07:49:00.927Z,7.70
2023-04-17T07:51:29.992Z,8.40
2023-04-17T07:53:58.177Z,6.80
2023-04-17T07:56:34.215Z,9.00
2023-04-17T07:59:05.014Z,10.30
2023-04-17T08:01:34.370Z,8.60
2023-04-17T08:04:03.386Z,7.10
2023-04-17T08:06:32.487Z,9.30
2023-04-17T08:09:02.242Z,11.20
2023-04-17T08:11:30.411Z,14.00
2023-04-17T08:13:58.370Z,7.90
2023-04-17T08:16:26.429Z,7.30
2023-04-17T08:18:54.560Z,10.70
2023-04-17T08:21:22.948Z,8.90
2023-04-17T08:23:51.228Z,9.20
2023-04-17T08:26:20.734Z,7.90
2023-04-17T08:28:49.037Z,10.70
2023-04-17T08:31:17.437Z,6.70
2023-04-17T08:33:45.596Z,6.80
2023-04-17T08:36:13.921Z,7.00
2023-04-17T08:38:45.140Z,6.80
2023-04-17T08:41:13.748Z,7.50
2023-04-17T08:46:10.074Z,7.70
2023-04-17T08:48:38.332Z,8.00
2023-04-17T08:51:06.672Z,7.90
2023-04-17T08:53:38.011Z,9.10
2023-04-17T08:56:08.968Z,7.40
2023-04-17T08:58:37.607Z,7.30
2023-04-17T09:01:20.728Z,8.80
2023-04-17T09:03:49.794Z,5.10
2023-04-17T09:06:18.278Z,4.20
2023-04-17T09:09:00.509Z,6.70
2023-04-17T09:11:29.359Z,5.80
2023-04-17T09:13:57.533Z,8.30
2023-04-17T09:16:25.982Z,6.30
2023-04-17T09:19:09.044Z,5.20
2023-04-17T09:21:37.546Z,6.60
2023-04-17T09:24:07.463Z,8.40
2023-04-17T09:26:38.061Z,8.20
2023-04-17T09:29:14.030Z,5.60
2023-04-17T09:31:43.189Z,4.60
2023-04-17T09:34:12.800Z,5.00
2023-04-17T09:36:42.186Z,6.00
2023-04-17T09:39:24.136Z,8.60
2023-04-17T09:42:03.716Z,5.40
2023-04-17T09:44:34.140Z,7.80
2023-04-17T09:47:02.583Z,11.10
2023-04-17T09:52:10.540Z,6.20
2023-04-17T09:57:08.554Z,6.80
2023-04-17T09:59:41.579Z,5.80
2023-04-17T10:02:10.249Z,10.00
2023-04-17T10:04:42.483Z,6.60
2023-04-17T10:07:11.150Z,7.30
2023-04-17T10:09:42.451Z,13.50
2023-04-17T10:12:13.056Z,10.80
2023-04-17T10:14:44.398Z,7.50
2023-04-17T10:17:31.764Z,5.70
2023-04-17T10:20:17.722Z,8.90
2023-04-17T10:22:56.274Z,7.60
2023-04-17T10:25:25.823Z,7.40
2023-04-17T10:28:00.883Z,8.90
2023-04-17T10:30:54.813Z,8.30
2023-04-17T10:33:25.855Z,15.90
2023-04-17T10:35:54.235Z,7.40
2023-04-17T10:41:04.636Z,6.70
2023-04-17T10:43:33.021Z,6.40
2023-04-17T10:48:42.469Z,9.80
2023-04-17T10:51:29.315Z,13.50
2023-04-17T10:53:58.517Z,9.40
2023-04-17T10:56:48.780Z,12.70
2023-04-17T10:59:17.963Z,8.60
2023-04-17T11:01:49.611Z,9.20
2023-04-17T11:04:22.278Z,4.80
2023-04-17T11:06:52.833Z,8.10
2023-04-17T11:09:22.588Z,5.70
2023-04-17T11:11:50.687Z,4.80
2023-04-17T11:14:20.943Z,5.40
2023-04-17T11:16:50.560Z,8.00
2023-04-17T11:19:23.251Z,5.00
2023-04-17T11:21:57.413Z,5.30
2023-04-17T11:24:29.912Z,7.10
2023-04-17T11:27:03.786Z,11.50
2023-04-17T11:29:32.523Z,9.40
2023-04-17T11:32:01.271Z,5.20
2023-04-17T11:34:29.527Z,5.20
2023-04-17T11:37:00.952Z,6.90
2023-04-17T11:39:30.882Z,7.10
2023-04-17T11:41:59.179Z,5.10
2023-04-17T11:44:28.620Z,5.70
2023-04-17T11:46:59.179Z,4.60
2023-04-17T11:49:31.830Z,3.40
2023-04-17T11:52:01.099Z,10.90
2023-04-17T11:54:30.898Z,5.20
2023-04-17T11:57:11.954Z,4.70
2023-04-17T11:59:46.219Z,5.80
2023-04-17T12:02:15.521Z,4.30
2023-04-17T12:04:46.285Z,3.20
2023-04-17T12:07:21.774Z,2.70
2023-04-17T12:09:57.624Z,4.90
2023-04-17T12:12:26.429Z,2.80
2023-04-17T12:14:59.507Z,4.80
2023-04-17T12:17:27.980Z,4.20
2023-04-17T12:19:56.207Z,7.30
2023-04-17T12:22:24.269Z,3.80
2023-04-17T12:24:52.453Z,2.80
2023-04-17T12:27:21.687Z,2.70
2023-04-17T12:29:50.044Z,3.00
2023-04-17T12:32:18.323Z,4.30
2023-04-17T12:34:47.194Z,2.20
2023-04-17T12:37:16.705Z,2.30
2023-04-17T12:39:47.751Z,3.30
2023-04-17T12:42:16.418Z,4.20
2023-04-17T12:47:12.524Z,2.10
2023-04-17T12:49:40.784Z,4.30
2023-04-17T12:52:08.872Z,1.80
2023-04-17T12:54:37.582Z,3.10
2023-04-17T12:57:06.320Z,3.10
2023-04-17T12:59:37.475Z,3.90
2023-04-17T13:04:36.338Z,4.60
2023-04-17T13:07:04.790Z,3.20
2023-04-17T13:12:01.608Z,4.00
2023-04-17T13:14:30.447Z,3.40
2023-04-17T13:16:58.644Z,2.30
2023-04-17T13:19:26.858Z,2.00
2023-04-17T13:21:54.934Z,1.20
2023-04-17T13:24:22.959Z,4.30
2023-04-17T13:26:51.342Z,2.90
2023-04-17T13:29:19.996Z,2.60
2023-04-17T13:31:51.239Z,3.80
2023-04-17T13:34:22.262Z,4.50
2023-04-17T13:36:50.523Z,2.60
2023-04-17T13:39:18.791Z,3.00
2023-04-17T13:41:47.598Z,2.70
2023-04-17T13:44:16.576Z,3.00
2023-04-17T13:46:47.579Z,3.10
2023-04-17T13:49:15.895Z,5.80
2023-04-17T13:51:43.995Z,5.70
2023-04-17T13:54:12.157Z,5.10
2023-04-17T13:56:40.375Z,4.70
2023-04-17T13:59:09.663Z,2.70
2023-04-17T14:01:38.201Z,3.60
2023-04-17T14:04:06.546Z,3.00
2023-04-17T14:06:35.678Z,3.10
2023-04-17T14:09:03.966Z,2.30
2023-04-17T14:11:34.475Z,3.10
2023-04-17T14:14:02.931Z,3.70
2023-04-17T14:16:31.159Z,3.10
2023-04-17T14:19:12.332Z,3.40
2023-04-17T14:21:42.172Z,2.10
2023-04-17T14:24:10.821Z,6.10
2023-04-17T14:26:39.275Z,2.80
2023-04-17T14:29:07.692Z,3.80
2023-04-17T14:34:04.135Z,2.30
2023-04-17T14:36:34.879Z,2.90
2023-04-17T14:39:03.690Z,2.30
2023-04-17T14:41:34.298Z,2.50
2023-04-17T14:44:02.887Z,2.40
2023-04-17T14:46:32.306Z,3.40
2023-04-17T14:49:00.978Z,3.90
2023-04-17T14:53:59.335Z,2.30
2023-04-17T14:56:27.625Z,3.70
2023-04-17T15:01:24.235Z,3.00
2023-04-17T15:03:52.802Z,4.70
2023-04-17T15:06:21.518Z,3.50
2023-04-17T15:08:49.723Z,3.30
2023-04-17T15:11:17.955Z,3.50
2023-04-17T15:13:46.090Z,4.60
2023-04-17T15:16:14.563Z,3.30
2023-04-17T15:21:10.916Z,3.30
2023-04-17T15:23:39.147Z,2.30
2023-04-17T15:26:07.352Z,2.80
2023-04-17T15:28:35.761Z,3.20
2023-04-17T15:31:04.134Z,2.90
2023-04-17T15:36:01.249Z,5.20
2023-04-17T15:38:29.683Z,2.70
2023-04-17T15:40:58.171Z,7.00
2023-04-17T15:43:26.357Z,2.90
2023-04-17T15:45:54.600Z,4.40
2023-04-17T15:48:22.810Z,5.70
2023-04-17T15:50:51.152Z,7.40
2023-04-17T15:53:19.328Z,5.00
2023-04-17T15:55:47.652Z,3.50
2023-04-17T15:58:16.886Z,5.30
2023-04-17T16:00:45.387Z,5.80
2023-04-17T16:03:14.904Z,6.30
2023-04-17T16:05:43.447Z,3.80
2023-04-17T16:08:12.175Z,6.40
2023-04-17T16:10:40.729Z,5.30
2023-04-17T16:15:38.570Z,4.90
2023-04-17T16:18:07.425Z,6.00
2023-04-17T16:20:36.133Z,4.10
2023-04-17T16:23:04.557Z,4.10
2023-04-17T16:25:33.109Z,5.70
2023-04-17T16:28:01.389Z,5.70
2023-04-17T16:30:29.725Z,3.10
2023-04-17T16:32:58.000Z,5.40
2023-04-17T16:35:26.364Z,5.80
2023-04-17T16:37:54.595Z,4.40
2023-04-17T16:40:22.703Z,6.70
2023-04-17T16:42:50.902Z,9.30
2023-04-17T16:45:19.260Z,6.00
2023-04-17T16:47:47.557Z,5.90
2023-04-17T16:55:12.396Z,5.20
2023-04-17T16:57:43.794Z,5.10
2023-04-17T17:00:12.540Z,5.90
2023-04-17T17:02:41.005Z,7.10
2023-04-17T17:07:40.976Z,6.30
2023-04-17T17:10:09.783Z,6.90
2023-04-17T17:12:38.687Z,5.60
2023-04-17T17:15:07.533Z,4.90
2023-04-17T17:17:35.864Z,4.10
2023-04-17T17:20:04.732Z,4.80
2023-04-17T17:22:33.310Z,6.10
2023-04-17T17:27:30.117Z,5.60
2023-04-17T17:30:00.268Z,5.90
2023-04-17T17:32:29.215Z,4.80
2023-04-17T17:34:58.982Z,5.60
2023-04-17T17:37:27.614Z,5.80
2023-04-17T17:39:55.827Z,3.60
2023-04-17T17:42:24.062Z,6.30
2023-04-17T17:44:52.413Z,3.10
2023-04-17T17:47:23.144Z,3.60
2023-04-17T17:49:51.538Z,6.70
2023-04-17T17:52:19.823Z,4.50
2023-04-17T17:54:48.076Z,3.10
2023-04-17T17:57:16.560Z,5.60
2023-04-17T17:59:45.181Z,4.50
2023-04-17T18:02:13.586Z,4.10
2023-04-17T18:04:45.774Z,4.10
2023-04-17T18:07:23.095Z,3.80
2023-04-17T18:09:51.422Z,4.90
2023-04-17T18:12:19.630Z,4.80
2023-04-17T18:14:47.814Z,4.20
2023-04-17T18:17:16.175Z,3.70
2023-04-17T18:19:44.464Z,3.30
2023-04-17T18:24:40.911Z,4.00
2023-04-17T18:27:09.168Z,4.60
2023-04-17T18:32:06.568Z,6.50
2023-04-17T18:34:34.932Z,5.30
2023-04-17T18:37:04.031Z,3.50
2023-04-17T18:39:32.812Z,4.50
2023-04-17T18:46:57.652Z,6.20
2023-04-17T18:49:27.592Z,3.80
2023-04-17T18:51:56.007Z,5.10
2023-04-17T18:54:24.506Z,4.70
2023-04-17T18:59:57.301Z,3.90
2023-04-17T19:02:25.677Z,5.70
2023-04-17T19:04:56.344Z,6.10
2023-04-17T19:07:24.827Z,8.10
2023-04-17T19:09:53.057Z,3.80
2023-04-17T19:12:21.272Z,4.80
2023-04-17T19:14:49.609Z,4.30
2023-04-17T19:17:17.922Z,4.10
2023-04-17T19:19:46.105Z,4.70
2023-04-17T19:22:18.058Z,3.90
2023-04-17T19:24:50.036Z,5.20
2023-04-17T19:27:18.817Z,6.20
2023-04-17T19:29:47.510Z,5.50
2023-04-17T19:32:16.782Z,5.40
2023-04-17T19:34:57.031Z,3.90
2023-04-17T19:37:25.791Z,5.20
2023-04-17T19:39:56.929Z,6.10
2023-04-17T19:42:25.791Z,6.70
2023-04-17T19:44:54.249Z,5.50
2023-04-17T19:47:24.223Z,8.40
2023-04-17T19:49:52.603Z,7.00
2023-04-17T19:52:20.841Z,6.10
2023-04-17T19:54:49.016Z,10.00
2023-04-17T19:57:17.730Z,6.20
2023-04-17T19:59:49.665Z,6.10
2023-04-17T20:02:22.739Z,5.50
2023-04-17T20:04:51.405Z,5.30
2023-04-17T20:07:19.675Z,5.80
2023-04-17T20:09:48.006Z,8.40
2023-04-17T20:12:20.920Z,5.00
2023-04-17T20:14:51.183Z,4.40
2023-04-17T20:17:20.363Z,6.70
2023-04-17T20:22:16.757Z,6.80
2023-04-17T20:24:45.387Z,5.90
2023-04-17T20:27:13.629Z,6.30
2023-04-17T20:29:41.736Z,9.20
2023-04-17T20:32:10.002Z,3.60
2023-04-17T20:34:38.192Z,5.20
2023-04-17T20:37:06.447Z,4.50
2023-04-17T20:42:03.510Z,6.10
2023-04-17T20:44:32.482Z,4.30
2023-04-17T20:47:00.902Z,5.00
2023-04-17T20:49:29.157Z,8.20
2023-04-17T20:54:26.398Z,7.00
2023-04-17T20:56:54.764Z,4.10
2023-04-17T20:59:23.170Z,6.50
2023-04-17T21:01:52.570Z,6.60
2023-04-17T21:04:22.129Z,5.90
2023-04-17T21:06:50.415Z,7.00
2023-04-17T21:09:19.407Z,4.60
2023-04-17T21:14:16.383Z,5.10
2023-04-17T21:19:17.756Z,8.10
2023-04-17T21:21:48.559Z,4.40
2023-04-17T21:26:47.953Z,6.00
2023-04-17T21:29:16.266Z,5.80
2023-04-17T21:31:44.761Z,8.30
2023-04-17T21:34:13.212Z,6.10
2023-04-17T21:36:41.668Z,4.20
2023-04-17T21:39:09.865Z,4.10
2023-04-17T21:41:40.977Z,5.50
2023-04-17T21:44:10.729Z,3.60
2023-04-17T21:46:39.205Z,6.60
2023-04-17T21:49:07.517Z,3.60
2023-04-17T21:51:35.946Z,4.00
2023-04-17T21:54:04.369Z,4.40
2023-04-17T21:56:32.549Z,4.00
2023-04-17T21:59:01.430Z,4.80
2023-04-17T22:01:29.893Z,4.00
2023-04-17T22:03:58.069Z,5.10
2023-04-17T22:06:30.809Z,4.10
2023-04-17T22:08:58.966Z,3.90
2023-04-17T22:11:27.112Z,4.20
2023-04-17T22:13:55.415Z,4.90
2023-04-17T22:16:23.544Z,6.00
2023-04-17T22:18:51.736Z,4.00
2023-04-17T22:21:19.950Z,5.10
2023-04-17T22:23:48.271Z,4.10
2023-04-17T22:26:16.466Z,6.60
2023-04-17T22:28:44.681Z,4.20
2023-04-17T22:31:15.991Z,4.40
2023-04-17T22:33:48.866Z,6.40
2023-04-17T22:36:19.718Z,5.20
2023-04-17T22:38:48.132Z,5.00
2023-04-17T22:41:16.366Z,10.20
2023-04-17T22:43:50.263Z,11.10
2023-04-17T22:46:18.635Z,3.80
2023-04-17T22:48:50.861Z,4.50
2023-04-17T22:51:19.486Z,5.60
2023-04-17T22:53:47.630Z,5.30
2023-04-17T22:56:15.859Z,5.30
2023-04-17T22:58:46.727Z,4.30
2023-04-17T23:01:14.973Z,4.40
2023-04-17T23:03:43.236Z,5.60
2023-04-17T23:06:11.712Z,7.10
2023-04-17T23:08:40.689Z,6.50
2023-04-17T23:13:38.338Z,4.30
2023-04-17T23:16:06.977Z,5.90
2023-04-17T23:18:39.015Z,5.10
2023-04-17T23:21:07.159Z,9.00
2023-04-17T23:23:35.291Z,3.60
2023-04-17T23:26:19.601Z,7.70
2023-04-17T23:28:47.664Z,5.10
2023-04-17T23:31:15.881Z,5.30
2023-04-17T23:33:46.971Z,4.80
2023-04-17T23:36:15.216Z,4.40
2023-04-17T23:38:43.391Z,4.70
2023-04-17T23:41:14.129Z,6.40
2023-04-17T23:43:42.327Z,8.00
2023-04-17T23:46:13.027Z,5.00
2023-04-17T23:48:41.553Z,5.50
2023-04-17T23:53:37.837Z,3.90
2023-04-17T23:56:06.243Z,5.00
2023-04-17T23:58:36.268Z,6.00
